Time;durP1;ratioP1;P1;durP2;ratioP2;P2;SDS_P1;SDS_P2;PMS_P1;PMS_P2;Temp;Humidity;BMP_temperature;BMP_pressure;BME280_temperature;BME280_humidity;BME280_pressure;Samples;Min_cycle;Max_cycle;Signal;HPM_P1;HPM_P2
2023/06/23 00:01:00;;;;;;;8.35;6.83;;;;;;;;;;5587749;28;10021501;-69
2023/06/23 00:04:00;;;;;;;8.40;7.13;;;;;;;;;;6283432;28;20028;-71
2023/06/23 00:07:00;;;;;;;8.70;6.85;;;;;;;;;;6287934;28;20044;-71
2023/06/23 00:10:05;;;;;;;7.77;6.97;;;;;;;;;;6282001;28;20424;-71
2023/06/23 00:13:05;;;;;;;7.68;6.90;;;;;;;;;;6288049;28;20283;-72
2023/06/23 00:16:06;;;;;;;7.38;6.53;;;;;;;;;;6289181;28;20050;-71
2023/06/23 00:19:06;;;;;;;8.27;7.35;;;;;;;;;;6289713;28;20092;-71
2023/06/23 00:22:07;;;;;;;8.90;7.47;;;;;;;;;;6292228;28;20347;-70
2023/06/23 00:25:09;;;;;;;10.80;7.18;;;;;;;;;;6299330;28;20369;-71
2023/06/23 00:28:09;;;;;;;8.70;7.32;;;;;;;;;;6291094;28;20489;-71
2023/06/23 00:31:10;;;;;;;11.02;8.15;;;;;;;;;;6281868;28;20100;-71
2023/06/23 00:34:10;;;;;;;7.82;7.05;;;;;;;;;;6288045;28;20025;-73
2023/06/23 00:37:10;;;;;;;8.20;7.10;;;;;;;;;;6290405;28;20024;-71
2023/06/23 00:40:11;;;;;;;8.65;7.40;;;;;;;;;;6291781;28;20042;-71
2023/06/23 00:43:11;;;;;;;10.15;7.38;;;;;;;;;;6281422;28;20069;-71
2023/06/23 00:46:16;;;;;;;9.93;7.55;;;;;;;;;;6283914;28;20466;-70
2023/06/23 00:49:16;;;;;;;8.73;7.68;;;;;;;;;;6276088;28;20013;-71
2023/06/23 00:52:16;;;;;;;9.43;6.70;;;;;;;;;;6281379;28;20444;-71
2023/06/23 00:55:17;;;;;;;9.70;8.32;;;;;;;;;;6279189;28;20470;-70
2023/06/23 00:58:17;;;;;;;13.13;7.68;;;;;;;;;;6286419;28;20029;-71
2023/06/23 01:01:17;;;;;;;10.55;7.45;;;;;;;;;;6285550;28;20021;-71
2023/06/23 01:04:18;;;;;;;9.73;7.72;;;;;;;;;;6286816;28;20095;-71
2023/06/23 01:07:31;;;;;;;13.10;7.88;;;;;;;;;;6276597;28;20445;-72
2023/06/23 01:10:44;;;;;;;10.38;7.93;;;;;;;;;;6279102;28;20070;-71
2023/06/23 01:13:51;;;;;;;10.70;7.90;;;;;;;;;;6284751;28;20024;-70
2023/06/23 01:16:58;;;;;;;11.85;7.55;;;;;;;;;;6285454;28;20024;-72
2023/06/23 01:20:15;;;;;;;8.98;7.57;;;;;;;;;;6285289;28;20538;-71
2023/06/23 01:23:21;;;;;;;10.05;7.50;;;;;;;;;;6287547;28;20032;-70
2023/06/23 01:26:33;;;;;;;10.95;7.13;;;;;;;;;;6283559;28;20017;-69
2023/06/23 01:29:35;;;;;;;9.18;6.50;;;;;;;;;;6284654;28;20020;-70
2023/06/23 01:32:40;;;;;;;10.00;6.47;;;;;;;;;;6278485;28;20021;-70
2023/06/23 01:35:43;;;;;;;10.63;6.57;;;;;;;;;;6283867;28;20074;-69
2023/06/23 01:38:46;;;;;;;7.03;5.47;;;;;;;;;;6285873;28;20051;-71
2023/06/23 01:41:52;;;;;;;8.27;5.60;;;;;;;;;;6283184;28;20059;-71
2023/06/23 01:44:56;;;;;;;11.02;5.18;;;;;;;;;;6285177;28;20020;-70
2023/06/23 01:48:00;;;;;;;8.32;4.43;;;;;;;;;;6278874;28;20398;-71
2023/06/23 01:51:02;;;;;;;13.02;4.60;;;;;;;;;;6288876;28;20055;-70
2023/06/23 01:54:03;;;;;;;9.50;4.18;;;;;;;;;;6278177;28;20024;-71
2023/06/23 01:57:04;;;;;;;9.77;4.20;;;;;;;;;;6276900;28;20090;-70
2023/06/23 02:00:10;;;;;;;11.55;3.75;;;;;;;;;;6283125;28;20028;-72
2023/06/23 02:03:11;;;;;;;9.20;3.55;;;;;;;;;;5933356;28;10000206;-71
2023/06/23 02:06:12;;;;;;;9.25;3.20;;;;;;;;;;6280025;28;20374;-73
2023/06/23 02:09:18;;;;;;;7.32;3.60;;;;;;;;;;6279269;28;20102;-72
2023/06/23 02:12:19;;;;;;;10.68;3.33;;;;;;;;;;6283791;28;20500;-70
2023/06/23 02:15:21;;;;;;;8.90;3.40;;;;;;;;;;6284934;28;20036;-71
2023/06/23 02:18:21;;;;;;;7.82;3.08;;;;;;;;;;6287143;28;20116;-71
2023/06/23 02:21:23;;;;;;;7.95;3.47;;;;;;;;;;6278698;28;20186;-70
2023/06/23 02:24:24;;;;;;;9.10;3.88;;;;;;;;;;6287855;28;20111;-71
2023/06/23 02:27:24;;;;;;;6.47;3.28;;;;;;;;;;6289009;28;20546;-71
2023/06/23 02:30:25;;;;;;;6.25;3.50;;;;;;;;;;6312691;28;20094;-75
2023/06/23 02:33:25;;;;;;;7.00;3.22;;;;;;;;;;6309693;28;20021;-70
2023/06/23 02:36:32;;;;;;;8.85;3.35;;;;;;;;;;6308099;28;20055;-70
2023/06/23 02:39:39;;;;;;;11.25;3.72;;;;;;;;;;6292259;28;20078;-69
2023/06/23 02:42:41;;;;;;;6.70;3.30;;;;;;;;;;6292271;28;20028;-69
2023/06/23 02:45:43;;;;;;;10.50;3.50;;;;;;;;;;6290375;28;20021;-69
2023/06/23 02:48:45;;;;;;;6.60;3.28;;;;;;;;;;6285962;28;20504;-70
2023/06/23 02:51:47;;;;;;;5.78;3.05;;;;;;;;;;6294399;28;20052;-70
2023/06/23 02:54:49;;;;;;;6.20;3.22;;;;;;;;;;6289951;28;20239;-69
2023/06/23 02:57:51;;;;;;;7.75;2.97;;;;;;;;;;6288145;28;20036;-69
2023/06/23 03:00:52;;;;;;;6.57;3.17;;;;;;;;;;6290613;28;20025;-69
2023/06/23 03:03:54;;;;;;;6.07;3.22;;;;;;;;;;6291765;28;20028;-71
2023/06/23 03:06:55;;;;;;;5.70;2.78;;;;;;;;;;6283179;28;20093;-69
2023/06/23 03:09:55;;;;;;;11.07;2.97;;;;;;;;;;6288059;28;20047;-69
2023/06/23 03:12:56;;;;;;;6.15;2.88;;;;;;;;;;6283682;28;20264;-69
2023/06/23 03:15:58;;;;;;;8.00;2.78;;;;;;;;;;6289624;28;20047;-69
2023/06/23 03:19:22;;;;;;;5.45;2.85;;;;;;;;;;6283575;28;20362;-71
2023/06/23 03:22:26;;;;;;;7.35;2.58;;;;;;;;;;6291198;28;20037;-70
2023/06/23 03:25:27;;;;;;;6.05;2.53;;;;;;;;;;6291497;28;20331;-71
2023/06/23 03:28:30;;;;;;;6.70;2.90;;;;;;;;;;6281194;28;20028;-71
2023/06/23 03:31:31;;;;;;;4.05;2.15;;;;;;;;;;6281620;28;20101;-72
2023/06/23 03:34:36;;;;;;;8.23;2.47;;;;;;;;;;6287106;28;20112;-71
2023/06/23 03:37:39;;;;;;;3.58;2.70;;;;;;;;;;6283068;28;20024;-71
2023/06/23 03:40:42;;;;;;;3.90;2.30;;;;;;;;;;6287808;28;20104;-70
2023/06/23 03:44:01;;;;;;;7.95;2.45;;;;;;;;;;6288676;28;20021;-70
2023/06/23 03:47:13;;;;;;;3.63;2.30;;;;;;;;;;6291353;28;20032;-74
2023/06/23 03:50:17;;;;;;;4.15;2.17;;;;;;;;;;6282669;28;20013;-71
2023/06/23 03:53:18;;;;;;;6.22;2.30;;;;;;;;;;6286883;28;20044;-69
2023/06/23 03:56:18;;;;;;;5.20;2.40;;;;;;;;;;6283564;28;20089;-70
2023/06/23 03:59:19;;;;;;;7.68;2.70;;;;;;;;;;6288038;28;20025;-70
2023/06/23 04:02:20;;;;;;;5.65;2.60;;;;;;;;;;6278864;28;20032;-69
2023/06/23 04:05:22;;;;;;;6.78;2.35;;;;;;;;;;6289593;28;20426;-70
2023/06/23 04:08:22;;;;;;;6.88;3.10;;;;;;;;;;6283022;28;20012;-70
2023/06/23 04:11:23;;;;;;;5.97;2.83;;;;;;;;;;6281650;28;20565;-70
2023/06/23 04:14:24;;;;;;;3.08;2.28;;;;;;;;;;6284662;28;20021;-70
2023/06/23 04:17:26;;;;;;;4.35;2.03;;;;;;;;;;6287974;28;20024;-70
2023/06/23 04:20:28;;;;;;;5.25;2.60;;;;;;;;;;6291056;28;20025;-72
2023/06/23 04:23:29;;;;;;;5.60;2.90;;;;;;;;;;6283710;28;20473;-71
2023/06/23 04:26:29;;;;;;;10.57;3.22;;;;;;;;;;6290407;28;20039;-70
2023/06/23 04:29:31;;;;;;;5.97;2.58;;;;;;;;;;6288503;28;20017;-69
2023/06/23 04:32:31;;;;;;;4.25;2.38;;;;;;;;;;6286494;28;20017;-71
2023/06/23 04:35:32;;;;;;;5.03;2.50;;;;;;;;;;6290875;28;20548;-72
2023/06/23 04:38:34;;;;;;;4.43;2.58;;;;;;;;;;6282574;28;20024;-70
2023/06/23 04:41:40;;;;;;;3.78;2.10;;;;;;;;;;6280461;28;20045;-71
2023/06/23 04:44:48;;;;;;;8.77;2.60;;;;;;;;;;6287834;28;20512;-71
2023/06/23 04:47:53;;;;;;;4.97;2.35;;;;;;;;;;6286472;28;20016;-70
2023/06/23 04:50:55;;;;;;;5.60;2.67;;;;;;;;;;6285608;28;20029;-70
2023/06/23 04:53:57;;;;;;;5.22;2.20;;;;;;;;;;6285847;28;20029;-73
2023/06/23 04:57:02;;;;;;;3.58;2.20;;;;;;;;;;6278517;28;20024;-71
2023/06/23 05:00:05;;;;;;;4.78;2.30;;;;;;;;;;6287777;28;20367;-71
2023/06/23 05:03:05;;;;;;;3.10;2.15;;;;;;;;;;6280289;28;20062;-70
2023/06/23 05:06:06;;;;;;;6.75;2.75;;;;;;;;;;6284416;28;20123;-71
2023/06/23 05:09:08;;;;;;;4.10;2.50;;;;;;;;;;6283818;28;20012;-71
2023/06/23 05:12:09;;;;;;;4.43;2.53;;;;;;;;;;6289287;28;20012;-70
2023/06/23 05:15:10;;;;;;;4.68;2.40;;;;;;;;;;6281704;28;20024;-70
2023/06/23 05:18:11;;;;;;;4.43;2.22;;;;;;;;;;6288059;28;20027;-70
2023/06/23 05:21:14;;;;;;;5.05;2.50;;;;;;;;;;6277960;28;20077;-70
2023/06/23 05:24:16;;;;;;;4.38;2.30;;;;;;;;;;6286884;28;20503;-70
2023/06/23 05:27:19;;;;;;;3.97;2.40;;;;;;;;;;6287980;28;20137;-69
2023/06/23 05:30:22;;;;;;;5.10;2.58;;;;;;;;;;6279702;28;20575;-69
2023/06/23 05:33:24;;;;;;;5.82;2.45;;;;;;;;;;6280675;28;20052;-70
2023/06/23 05:36:25;;;;;;;7.35;2.40;;;;;;;;;;6276149;28;20028;-69
2023/06/23 05:39:27;;;;;;;6.22;2.60;;;;;;;;;;6284236;28;20055;-70
2023/06/23 05:42:29;;;;;;;8.40;2.30;;;;;;;;;;6280081;28;20075;-70
2023/06/23 05:45:29;;;;;;;4.00;2.20;;;;;;;;;;6288414;28;20035;-71
2023/06/23 05:48:36;;;;;;;6.45;2.38;;;;;;;;;;6284838;28;20025;-72
2023/06/23 05:51:37;;;;;;;4.68;2.20;;;;;;;;;;6279074;28;20478;-71
2023/06/23 05:54:40;;;;;;;3.90;2.08;;;;;;;;;;6290303;28;20035;-72
2023/06/23 05:57:41;;;;;;;6.32;2.30;;;;;;;;;;6280828;28;20025;-68
2023/06/23 06:01:08;;;;;;;5.75;2.25;;;;;;;;;;6279825;28;20056;-70
2023/06/23 06:04:16;;;;;;;3.80;2.22;;;;;;;;;;6280934;28;20610;-70
2023/06/23 06:07:26;;;;;;;4.47;2.33;;;;;;;;;;6274404;28;20157;-70
2023/06/23 06:10:27;;;;;;;;;;;;;;;;;;6281862;28;20037;-69
2023/06/23 06:13:30;;;;;;;6.13;1.77;;;;;;;;;;6277997;28;20364;-70
2023/06/23 06:16:31;;;;;;;9.45;2.88;;;;;;;;;;6283876;28;20456;-70
2023/06/23 06:19:32;;;;;;;8.00;2.40;;;;;;;;;;6283329;28;20024;-70
2023/06/23 06:22:35;;;;;;;5.03;2.28;;;;;;;;;;6291728;28;20033;-69
2023/06/23 06:25:36;;;;;;;3.03;1.98;;;;;;;;;;6288936;28;20020;-70
2023/06/23 06:28:38;;;;;;;3.75;2.17;;;;;;;;;;6290665;28;20016;-69
2023/06/23 06:31:39;;;;;;;4.63;2.60;;;;;;;;;;6280972;28;20037;-71
2023/06/23 06:34:40;;;;;;;5.93;2.50;;;;;;;;;;6276376;28;20082;-71
2023/06/23 06:37:43;;;;;;;3.75;2.42;;;;;;;;;;6281650;28;20032;-71
2023/06/23 06:40:46;;;;;;;5.75;2.40;;;;;;;;;;6284215;28;20020;-69
2023/06/23 06:43:47;;;;;;;3.05;2.13;;;;;;;;;;6289523;28;20021;-71
2023/06/23 06:46:49;;;;;;;2.60;2.00;;;;;;;;;;6284720;28;20102;-70
2023/06/23 06:49:49;;;;;;;3.33;2.10;;;;;;;;;;6280965;28;20082;-71
2023/06/23 06:52:51;;;;;;;3.33;2.30;;;;;;;;;;6281651;28;20048;-70
2023/06/23 06:55:52;;;;;;;3.45;1.85;;;;;;;;;;6280692;28;20029;-71
2023/06/23 06:58:53;;;;;;;4.38;2.00;;;;;;;;;;6288898;28;20017;-70
2023/06/23 07:01:54;;;;;;;1.88;1.52;;;;;;;;;;6283560;28;20381;-69
2023/06/23 07:04:54;;;;;;;2.80;1.60;;;;;;;;;;6286888;28;20024;-69
2023/06/23 07:07:55;;;;;;;1.88;1.40;;;;;;;;;;6287022;28;20044;-70
2023/06/23 07:10:55;;;;;;;2.72;1.50;;;;;;;;;;6289489;28;20016;-69
2023/06/23 07:13:56;;;;;;;3.22;1.65;;;;;;;;;;6279973;28;20574;-69
2023/06/23 07:16:56;;;;;;;2.83;1.60;;;;;;;;;;6289871;28;20041;-69
2023/06/23 07:19:59;;;;;;;4.03;1.67;;;;;;;;;;6291236;28;20120;-70
2023/06/23 07:23:02;;;;;;;2.88;1.77;;;;;;;;;;6281398;28;20023;-70
2023/06/23 07:26:02;;;;;;;7.75;1.85;;;;;;;;;;6291803;28;20106;-69
2023/06/23 07:29:03;;;;;;;6.03;1.83;;;;;;;;;;5930835;28;9999768;-69
2023/06/23 07:32:04;;;;;;;1.73;1.38;;;;;;;;;;6286873;28;20101;-71
2023/06/23 07:35:04;;;;;;;3.20;1.52;;;;;;;;;;6288477;28;20086;-70
2023/06/23 07:38:05;;;;;;;1.27;1.17;;;;;;;;;;6281602;28;20118;-71
2023/06/23 07:41:08;;;;;;;3.03;1.70;;;;;;;;;;6279584;28;20028;-70
2023/06/23 07:44:08;;;;;;;3.50;1.42;;;;;;;;;;6284201;28;20279;-69
2023/06/23 07:47:09;;;;;;;5.47;1.75;;;;;;;;;;6286917;28;20099;-70
2023/06/23 07:50:09;;;;;;;2.45;1.50;;;;;;;;;;6277374;28;20016;-72
2023/06/23 07:53:09;;;;;;;5.10;1.67;;;;;;;;;;6280431;28;20078;-71
2023/06/23 07:56:13;;;;;;;1.40;1.30;;;;;;;;;;6281524;28;20025;-70
2023/06/23 07:59:13;;;;;;;2.00;1.20;;;;;;;;;;6286761;28;20025;-71
2023/06/23 08:02:14;;;;;;;1.67;1.38;;;;;;;;;;6280523;28;20024;-70
2023/06/23 08:05:14;;;;;;;2.50;1.70;;;;;;;;;;6283672;28;20034;-70
2023/06/23 08:08:14;;;;;;;1.58;1.27;;;;;;;;;;6277072;28;20024;-72
2023/06/23 08:11:15;;;;;;;2.03;1.40;;;;;;;;;;6279613;28;20162;-71
2023/06/23 08:14:15;;;;;;;2.05;1.60;;;;;;;;;;6279757;28;20279;-69
2023/06/23 08:17:15;;;;;;;3.20;1.67;;;;;;;;;;6279935;28;20508;-70
2023/06/23 08:20:19;;;;;;;3.22;1.90;;;;;;;;;;6279525;28;20025;-71
2023/06/23 08:23:21;;;;;;;2.97;1.52;;;;;;;;;;6279372;28;20110;-69
2023/06/23 08:26:22;;;;;;;3.33;1.52;;;;;;;;;;6280916;28;20082;-70
2023/06/23 08:29:25;;;;;;;3.05;1.70;;;;;;;;;;6276348;28;20029;-71
2023/06/23 08:32:25;;;;;;;3.00;1.45;;;;;;;;;;6277255;28;20032;-70
2023/06/23 08:35:27;;;;;;;2.13;1.55;;;;;;;;;;6270380;28;20036;-69
2023/06/23 08:38:27;;;;;;;5.15;1.40;;;;;;;;;;6276139;28;20131;-70
2023/06/23 08:41:29;;;;;;;2.22;1.50;;;;;;;;;;6272383;28;20761;-69
2023/06/23 08:44:31;;;;;;;2.33;1.33;;;;;;;;;;6276827;28;20111;-69
2023/06/23 08:47:33;;;;;;;1.52;1.42;;;;;;;;;;6277542;28;20033;-67
2023/06/23 08:50:34;;;;;;;2.50;1.25;;;;;;;;;;6288973;28;20021;-69
2023/06/23 08:53:35;;;;;;;2.60;1.30;;;;;;;;;;6273877;28;20021;-69
2023/06/23 08:56:35;;;;;;;3.33;1.23;;;;;;;;;;6278053;28;20457;-70
2023/06/23 08:59:36;;;;;;;2.72;1.20;;;;;;;;;;6283510;28;20096;-69
2023/06/23 09:02:36;;;;;;;2.40;1.40;;;;;;;;;;6279994;28;20051;-72
2023/06/23 09:05:38;;;;;;;1.55;1.20;;;;;;;;;;6287042;28;20032;-72
2023/06/23 09:08:38;;;;;;;1.70;1.20;;;;;;;;;;6277078;28;20032;-70
2023/06/23 09:11:39;;;;;;;2.15;1.15;;;;;;;;;;6279268;28;20184;-69
2023/06/23 09:14:41;;;;;;;2.45;1.10;;;;;;;;;;6286145;28;20078;-70
2023/06/23 09:17:42;;;;;;;3.33;1.08;;;;;;;;;;6278499;28;20024;-70
2023/06/23 09:20:44;;;;;;;3.00;1.10;;;;;;;;;;6284609;28;20020;-71
2023/06/23 09:24:20;;;;;;;2.05;1.10;;;;;;;;;;6285042;28;20099;-71
2023/06/23 09:27:38;;;;;;;1.50;1.10;;;;;;;;;;6239715;28;20049;-71
2023/06/23 09:30:41;;;;;;;1.60;1.02;;;;;;;;;;6277060;28;20085;-73
2023/06/23 09:33:46;;;;;;;1.85;1.30;;;;;;;;;;6277413;28;20029;-71
2023/06/23 09:36:46;;;;;;;1.27;0.98;;;;;;;;;;6279596;28;20507;-70
2023/06/23 09:39:50;;;;;;;2.53;1.30;;;;;;;;;;6273861;28;20029;-71
2023/06/23 09:42:55;;;;;;;1.20;1.00;;;;;;;;;;6278628;28;20484;-71
2023/06/23 09:45:56;;;;;;;2.08;1.00;;;;;;;;;;6280411;28;20461;-70
2023/06/23 09:48:59;;;;;;;1.90;0.90;;;;;;;;;;6280146;28;20212;-70
2023/06/23 09:51:59;;;;;;;1.33;1.10;;;;;;;;;;6289424;28;20068;-70
2023/06/23 09:55:05;;;;;;;1.13;1.00;;;;;;;;;;6296764;28;20529;-69
2023/06/23 09:58:08;;;;;;;2.55;1.02;;;;;;;;;;6303734;28;20031;-71
2023/06/23 10:01:10;;;;;;;2.08;1.10;;;;;;;;;;6292037;28;20114;-70
2023/06/23 10:04:10;;;;;;;2.58;1.00;;;;;;;;;;6298358;28;20025;-71
2023/06/23 10:07:17;;;;;;;2.30;0.82;;;;;;;;;;6286939;28;20051;-71
2023/06/23 10:10:18;;;;;;;1.95;1.08;;;;;;;;;;6291266;28;20497;-71
2023/06/23 10:13:19;;;;;;;1.20;1.00;;;;;;;;;;6285891;28;20020;-66
2023/06/23 10:16:19;;;;;;;1.02;0.90;;;;;;;;;;6290529;28;20027;-68
2023/06/23 10:19:20;;;;;;;2.80;0.98;;;;;;;;;;6280137;28;20025;-67
2023/06/23 10:22:21;;;;;;;1.45;0.77;;;;;;;;;;6285222;28;20009;-67
2023/06/23 10:25:22;;;;;;;0.80;0.80;;;;;;;;;;6290071;28;20035;-71
2023/06/23 10:28:23;;;;;;;3.05;0.80;;;;;;;;;;6282581;28;20120;-71
2023/06/23 10:31:24;;;;;;;0.88;0.70;;;;;;;;;;6295421;28;20080;-72
2023/06/23 10:34:27;;;;;;;1.10;0.80;;;;;;;;;;6291794;28;20049;-71
2023/06/23 10:37:28;;;;;;;1.85;0.70;;;;;;;;;;6275460;28;20047;-72
2023/06/23 10:40:30;;;;;;;0.95;0.60;;;;;;;;;;6281709;28;20441;-70
2023/06/23 10:43:32;;;;;;;1.23;0.55;;;;;;;;;;6285941;28;20021;-70
2023/06/23 10:46:33;;;;;;;0.68;0.50;;;;;;;;;;6287904;28;20189;-71
2023/06/23 10:49:34;;;;;;;0.98;0.75;;;;;;;;;;6297363;28;20028;-71
2023/06/23 10:52:34;;;;;;;1.70;0.80;;;;;;;;;;6289600;28;20048;-70
2023/06/23 10:55:41;;;;;;;4.37;0.70;;;;;;;;;;6276919;28;20488;-70
2023/06/23 10:58:49;;;;;;;0.60;0.60;;;;;;;;;;6290202;28;20298;-72
2023/06/23 11:02:07;;;;;;;0.60;0.60;;;;;;;;;;6281237;28;20024;-71
2023/06/23 11:05:14;;;;;;;1.90;0.63;;;;;;;;;;6285844;28;20021;-70
2023/06/23 11:08:15;;;;;;;1.25;0.63;;;;;;;;;;6281970;28;20382;-71
2023/06/23 11:11:15;;;;;;;2.00;0.43;;;;;;;;;;6279317;28;20086;-72
2023/06/23 11:14:17;;;;;;;1.35;0.70;;;;;;;;;;6287349;28;20544;-70
2023/06/23 11:17:21;;;;;;;1.10;0.50;;;;;;;;;;6280406;28;20024;-70
2023/06/23 11:20:24;;;;;;;1.10;0.65;;;;;;;;;;6279322;28;20025;-69
2023/06/23 11:23:25;;;;;;;0.52;0.52;;;;;;;;;;6283050;28;20727;-70
2023/06/23 11:26:25;;;;;;;1.42;0.70;;;;;;;;;;6282565;28;20024;-72
2023/06/23 11:29:26;;;;;;;0.93;0.70;;;;;;;;;;6290185;28;20042;-70
2023/06/23 11:32:26;;;;;;;0.63;0.63;;;;;;;;;;6280663;28;20526;-71
2023/06/23 11:35:27;;;;;;;2.83;0.63;;;;;;;;;;6280214;28;20114;-70
2023/06/23 11:38:28;;;;;;;0.60;0.60;;;;;;;;;;6281680;28;20270;-70
2023/06/23 11:41:31;;;;;;;2.70;0.73;;;;;;;;;;6278799;28;20375;-70
2023/06/23 11:44:32;;;;;;;0.98;0.60;;;;;;;;;;6278246;28;20028;-71
2023/06/23 11:47:32;;;;;;;0.50;0.50;;;;;;;;;;6275289;28;20039;-71
2023/06/23 11:50:33;;;;;;;1.88;0.90;;;;;;;;;;6277052;28;20021;-69
2023/06/23 11:53:33;;;;;;;1.85;0.55;;;;;;;;;;6275108;28;20581;-68
2023/06/23 11:56:34;;;;;;;0.50;0.50;;;;;;;;;;6273948;28;20105;-67
2023/06/23 11:59:38;;;;;;;0.57;0.47;;;;;;;;;;6276842;28;20494;-70
2023/06/23 12:02:38;;;;;;;0.63;0.60;;;;;;;;;;6279263;28;20105;-68
2023/06/23 12:05:41;;;;;;;0.30;0.30;;;;;;;;;;6271253;28;20033;-68
2023/06/23 12:08:41;;;;;;;1.48;0.43;;;;;;;;;;6285886;28;20043;-68
2023/06/23 12:11:42;;;;;;;1.60;0.60;;;;;;;;;;6273003;28;20038;-69
2023/06/23 12:14:43;;;;;;;0.73;0.50;;;;;;;;;;6284764;28;20449;-71
2023/06/23 12:17:43;;;;;;;1.05;0.70;;;;;;;;;;6281462;28;20283;-70
2023/06/23 12:20:45;;;;;;;3.47;0.77;;;;;;;;;;6279883;28;20466;-68
2023/06/23 12:23:45;;;;;;;2.33;0.90;;;;;;;;;;6282206;28;20282;-70
2023/06/23 12:26:46;;;;;;;1.17;0.70;;;;;;;;;;6286385;28;20539;-71
2023/06/23 12:29:48;;;;;;;1.15;0.90;;;;;;;;;;6288897;28;20025;-69
2023/06/23 12:32:55;;;;;;;1.08;0.80;;;;;;;;;;6292603;28;20042;-69
2023/06/23 12:35:56;;;;;;;1.30;0.93;;;;;;;;;;6280461;28;20024;-70
2023/06/23 12:38:57;;;;;;;1.63;0.93;;;;;;;;;;6288246;28;20028;-68
2023/06/23 12:41:57;;;;;;;0.82;0.80;;;;;;;;;;6284316;28;20094;-68
2023/06/23 12:44:58;;;;;;;1.85;1.30;;;;;;;;;;6283858;28;20073;-68
2023/06/23 12:47:59;;;;;;;2.88;1.20;;;;;;;;;;6286576;28;20025;-70
2023/06/23 12:51:02;;;;;;;3.55;1.30;;;;;;;;;;6288898;28;20097;-70
2023/06/23 12:54:03;;;;;;;2.17;1.40;;;;;;;;;;6278131;28;20120;-71
2023/06/23 12:57:03;;;;;;;1.52;1.25;;;;;;;;;;6289149;28;20030;-72
2023/06/23 13:00:04;;;;;;;1.88;1.45;;;;;;;;;;6281909;28;20044;-71
2023/06/23 13:03:04;;;;;;;2.70;1.20;;;;;;;;;;6272344;28;20039;-71
2023/06/23 13:06:04;;;;;;;;;;;;;;;;;;6277510;28;20024;-69
2023/06/23 13:09:04;;;;;;;4.93;1.70;;;;;;;;;;6286723;28;19905;-70
2023/06/23 13:12:05;;;;;;;;;;;;;;;;;;6277543;28;20025;-70
2023/06/23 13:15:06;;;;;;;2.43;2.20;;;;;;;;;;6286616;28;19915;-70
2023/06/23 13:18:06;;;;;;;;;;;;;;;;;;6286976;28;20047;-69
2023/06/23 13:21:06;;;;;;;3.55;1.52;;;;;;;;;;6276854;28;19996;-74
2023/06/23 13:24:06;;;;;;;;;;;;;;;;;;6279566;28;20102;-73
2023/06/23 13:27:08;;;;;;;1.42;1.33;;;;;;;;;;6274361;28;20018;-74
2023/06/23 13:30:08;;;;;;;1.52;1.42;;;;;;;;;;6280962;28;20046;-73
2023/06/23 13:33:09;;;;;;;3.45;1.80;;;;;;;;;;6276629;28;20091;-73
2023/06/23 13:36:09;;;;;;;;;;;;;;;;;;6278130;28;20124;-72
2023/06/23 13:39:10;;;;;;;2.00;1.50;;;;;;;;;;6272309;28;19960;-71
2023/06/23 13:42:10;;;;;;;;;;;;;;;;;;6276822;28;20027;-70
2023/06/23 13:45:10;;;;;;;3.30;1.98;;;;;;;;;;6279056;28;19920;-70
2023/06/23 13:48:10;;;;;;;;;;;;;;;;;;6275009;28;20036;-70
2023/06/23 13:51:11;;;;;;;2.00;1.80;;;;;;;;;;6273133;28;19909;-70
2023/06/23 13:54:12;;;;;;;2.53;2.05;;;;;;;;;;6280387;28;20043;-71
2023/06/23 13:57:12;;;;;;;;;;;;;;;;;;6278472;28;20104;-71
2023/06/23 14:00:12;;;;;;;2.38;1.45;;;;;;;;;;6279846;28;20377;-70
2023/06/23 14:03:13;;;;;;;1.35;1.23;;;;;;;;;;6279966;28;20581;-71
2023/06/23 14:06:13;;;;;;;1.87;1.27;;;;;;;;;;6271695;28;20029;-70
2023/06/23 14:09:20;;;;;;;1.25;1.15;;;;;;;;;;5923973;28;10000493;-70
2023/06/23 14:12:20;;;;;;;1.60;1.48;;;;;;;;;;6275407;28;20024;-70
2023/06/23 14:15:20;;;;;;;2.13;1.40;;;;;;;;;;6262733;28;20445;-70
2023/06/23 14:18:21;;;;;;;;;;;;;;;;;;6269041;28;20028;-70
2023/06/23 14:21:21;;;;;;;1.00;0.90;;;;;;;;;;6271785;28;20054;-69
2023/06/23 14:24:23;;;;;;;;;;;;;;;;;;6274320;28;20103;-73
2023/06/23 14:27:24;;;;;;;0.50;0.50;;;;;;;;;;6269800;28;19951;-69
2023/06/23 14:30:24;;;;;;;0.60;0.60;;;;;;;;;;6268962;28;20036;-71
2023/06/23 14:33:24;;;;;;;0.50;0.50;;;;;;;;;;6270427;28;20850;-69
2023/06/23 14:36:24;;;;;;;;;;;;;;;;;;6266358;28;20037;-70
2023/06/23 14:39:28;;;;;;;0.47;0.47;;;;;;;;;;6267038;28;20287;-70
2023/06/23 14:42:28;;;;;;;0.73;0.50;;;;;;;;;;6275099;28;20029;-71
2023/06/23 14:45:36;;;;;;;0.52;0.50;;;;;;;;;;6272604;28;20059;-72
2023/06/23 14:48:36;;;;;;;0.50;0.50;;;;;;;;;;6280077;28;20073;-69
2023/06/23 14:51:36;;;;;;;0.40;0.40;;;;;;;;;;6278264;28;20020;-71
2023/06/23 14:54:36;;;;;;;;;;;;;;;;;;6283637;28;20027;-71
2023/06/23 14:57:37;;;;;;;0.43;0.43;;;;;;;;;;6281207;28;19923;-71
2023/06/23 15:00:37;;;;;;;0.50;0.50;;;;;;;;;;6274585;28;20483;-71
2023/06/23 15:03:37;;;;;;;0.40;0.40;;;;;;;;;;6280459;28;20411;-70
2023/06/23 15:06:39;;;;;;;0.30;0.30;;;;;;;;;;6278211;28;20032;-71
2023/06/23 15:09:39;;;;;;;0.30;0.30;;;;;;;;;;6278555;28;20052;-71
2023/06/23 15:12:39;;;;;;;0.10;0.10;;;;;;;;;;6276916;28;20111;-70
2023/06/23 15:15:40;;;;;;;0.40;0.40;;;;;;;;;;6279298;28;20352;-70
2023/06/23 15:18:40;;;;;;;0.30;0.30;;;;;;;;;;6278455;28;20700;-71
2023/06/23 15:21:44;;;;;;;0.20;0.20;;;;;;;;;;6276495;28;20116;-71
2023/06/23 15:24:44;;;;;;;0.20;0.20;;;;;;;;;;6278437;28;20025;-71
2023/06/23 15:27:45;;;;;;;0.40;0.40;;;;;;;;;;6278166;28;20404;-71
2023/06/23 15:30:45;;;;;;;0.35;0.35;;;;;;;;;;6279418;28;20470;-71
2023/06/23 15:33:45;;;;;;;0.20;0.20;;;;;;;;;;6276942;28;20032;-71
2023/06/23 15:36:46;;;;;;;0.10;0.10;;;;;;;;;;6280724;28;20039;-72
2023/06/23 15:39:46;;;;;;;0.20;0.20;;;;;;;;;;6272909;28;20290;-73
2023/06/23 15:42:46;;;;;;;0.10;0.10;;;;;;;;;;6281240;28;20037;-71
2023/06/23 15:45:47;;;;;;;;;;;;;;;;;;6275384;28;20024;-71
2023/06/23 15:48:47;;;;;;;0.20;0.20;;;;;;;;;;6276007;28;20170;-71
2023/06/23 15:51:47;;;;;;;0.20;0.20;;;;;;;;;;6273423;28;20032;-70
2023/06/23 15:54:48;;;;;;;0.35;0.30;;;;;;;;;;6275135;28;20827;-71
2023/06/23 15:57:48;;;;;;;0.10;0.10;;;;;;;;;;6274873;28;20032;-70
2023/06/23 16:00:52;;;;;;;0.20;0.20;;;;;;;;;;6275354;28;20032;-70
2023/06/23 16:03:55;;;;;;;0.30;0.20;;;;;;;;;;6270914;28;20810;-70
2023/06/23 16:06:56;;;;;;;0.20;0.20;;;;;;;;;;6276016;28;20036;-70
2023/06/23 16:09:57;;;;;;;0.20;0.20;;;;;;;;;;6277634;28;20482;-71
2023/06/23 16:12:57;;;;;;;0.40;0.40;;;;;;;;;;6276746;28;20119;-70
2023/06/23 16:15:58;;;;;;;0.40;0.30;;;;;;;;;;6276114;28;20458;-71
2023/06/23 16:18:58;;;;;;;0.38;0.38;;;;;;;;;;6277795;28;20036;-72
2023/06/23 16:21:58;;;;;;;;;;;;;;;;;;6276192;28;20040;-71
2023/06/23 16:25:00;;;;;;;0.30;0.30;;;;;;;;;;6292513;28;19908;-71
2023/06/23 16:28:00;;;;;;;0.45;0.40;;;;;;;;;;6287354;28;20271;-71
2023/06/23 16:31:00;;;;;;;0.90;0.70;;;;;;;;;;6294014;28;20020;-69
2023/06/23 16:34:01;;;;;;;0.50;0.47;;;;;;;;;;6288246;28;20035;-71
2023/06/23 16:37:02;;;;;;;;;;;;;;;;;;6286096;28;20091;-70
2023/06/23 16:40:02;;;;;;;0.77;0.67;;;;;;;;;;6282740;28;19912;-70
2023/06/23 16:43:04;;;;;;;0.60;0.60;;;;;;;;;;6285357;28;20020;-72
2023/06/23 16:46:04;;;;;;;0.40;0.35;;;;;;;;;;6282908;28;20033;-71
2023/06/23 16:49:04;;;;;;;0.30;0.30;;;;;;;;;;6275529;28;21190;-71
2023/06/23 16:52:05;;;;;;;0.20;0.20;;;;;;;;;;6269873;28;20291;-70
2023/06/23 16:55:06;;;;;;;0.17;0.17;;;;;;;;;;6276503;28;20095;-73
2023/06/23 16:58:06;;;;;;;0.30;0.30;;;;;;;;;;6271576;28;20088;-71
2023/06/23 17:01:07;;;;;;;0.50;0.33;;;;;;;;;;6273465;28;20047;-70
2023/06/23 17:04:07;;;;;;;;;;;;;;;;;;6275964;28;20398;-69
2023/06/23 17:07:09;;;;;;;0.22;0.22;;;;;;;;;;6271465;28;19920;-70
2023/06/23 17:10:10;;;;;;;0.13;0.13;;;;;;;;;;6271401;28;20534;-70
2023/06/23 17:13:10;;;;;;;0.10;0.10;;;;;;;;;;6270504;28;20044;-70
2023/06/23 17:16:10;;;;;;;0.10;0.10;;;;;;;;;;6281584;28;20118;-70
2023/06/23 17:19:11;;;;;;;0.20;0.20;;;;;;;;;;6282746;28;20024;-68
2023/06/23 17:22:11;;;;;;;0.32;0.32;;;;;;;;;;6281860;28;20082;-69
2023/06/23 17:25:14;;;;;;;0.30;0.20;;;;;;;;;;6276645;28;20028;-69
2023/06/23 17:28:14;;;;;;;0.20;0.20;;;;;;;;;;6273293;28;20020;-69
2023/06/23 17:31:15;;;;;;;0.10;0.10;;;;;;;;;;6269044;28;20036;-69
2023/06/23 17:34:15;;;;;;;0.30;0.30;;;;;;;;;;6271946;28;21019;-68
2023/06/23 17:37:16;;;;;;;0.20;0.20;;;;;;;;;;6278249;28;20115;-74
2023/06/23 17:40:19;;;;;;;0.10;0.10;;;;;;;;;;6271500;28;20037;-70
2023/06/23 17:43:20;;;;;;;0.20;0.20;;;;;;;;;;6272251;28;20067;-69
2023/06/23 17:46:22;;;;;;;0.13;0.13;;;;;;;;;;6276280;28;20099;-71
2023/06/23 17:49:23;;;;;;;0.10;0.10;;;;;;;;;;6276000;28;20047;-70
2023/06/23 17:52:23;;;;;;;0.00;0.00;;;;;;;;;;6286885;28;20029;-69
2023/06/23 17:55:24;;;;;;;0.00;0.00;;;;;;;;;;6280503;28;20287;-69
2023/06/23 17:58:27;;;;;;;0.10;0.10;;;;;;;;;;6272307;28;20024;-70
2023/06/23 18:01:28;;;;;;;0.15;0.10;;;;;;;;;;6281380;28;20035;-70
2023/06/23 18:04:28;;;;;;;0.20;0.20;;;;;;;;;;6275954;28;20020;-69
2023/06/23 18:07:29;;;;;;;0.20;0.20;;;;;;;;;;6280360;28;20347;-71
2023/06/23 18:10:29;;;;;;;0.50;0.30;;;;;;;;;;6271339;28;20665;-71
2023/06/23 18:13:29;;;;;;;0.10;0.10;;;;;;;;;;6270533;28;20032;-71
2023/06/23 18:16:30;;;;;;;0.10;0.10;;;;;;;;;;6278667;28;20317;-70